sensor_id;sensor_type;location;lat;lon;timestamp;temperature;humidity
52321;DHT22;38261;54.090;13.382;2023-06-10T00:01:12;14.80;99.90
52321;DHT22;38261;54.090;13.382;2023-06-10T00:02:34;14.80;99.90
52321;DHT22;38261;54.090;13.382;2023-06-10T00:03:56;14.70;99.90
52321;DHT22;38261;54.090;13.382;2023-06-10T00:05:19;14.80;99.90
52321;DHT22;38261;54.090;13.382;2023-06-10T00:06:44;14.70;99.90
52321;DHT22;38261;54.090;13.382;2023-06-10T00:08:06;14.70;99.90
52321;DHT22;38261;54.090;13.382;2023-06-10T00:09:32;14.70;99.90
52321;DHT22;38261;54.090;13.382;2023-06-10T00:10:54;14.80;99.90
52321;DHT22;38261;54.090;13.382;2023-06-10T00:12:16;14.70;99.90
52321;DHT22;38261;54.090;13.382;2023-06-10T00:13:39;14.80;99.90
52321;DHT22;38261;54.090;13.382;2023-06-10T00:15:03;14.70;99.90
52321;DHT22;38261;54.090;13.382;2023-06-10T00:16:26;14.70;99.90
52321;DHT22;38261;54.090;13.382;2023-06-10T00:17:48;14.70;99.90
52321;DHT22;38261;54.090;13.382;2023-06-10T00:19:11;14.70;99.90
52321;DHT22;38261;54.090;13.382;2023-06-10T00:20:36;14.70;99.90
52321;DHT22;38261;54.090;13.382;2023-06-10T00:22:00;14.80;99.90
52321;DHT22;38261;54.090;13.382;2023-06-10T00:23:22;14.70;99.90
52321;DHT22;38261;54.090;13.382;2023-06-10T00:24:46;14.70;99.90
52321;DHT22;38261;54.090;13.382;2023-06-10T00:26:09;14.70;99.90
52321;DHT22;38261;54.090;13.382;2023-06-10T00:27:31;14.70;99.90
52321;DHT22;38261;54.090;13.382;2023-06-10T00:28:57;14.70;99.90
52321;DHT22;38261;54.090;13.382;2023-06-10T00:30:19;14.70;99.90
52321;DHT22;38261;54.090;13.382;2023-06-10T00:31:43;14.70;99.90
52321;DHT22;38261;54.090;13.382;2023-06-10T00:33:05;14.70;99.90
52321;DHT22;38261;54.090;13.382;2023-06-10T00:34:27;14.70;99.90
52321;DHT22;38261;54.090;13.382;2023-06-10T00:35:49;14.70;99.90
52321;DHT22;38261;54.090;13.382;2023-06-10T00:37:11;14.70;99.90
52321;DHT22;38261;54.090;13.382;2023-06-10T00:38:34;14.70;99.90
52321;DHT22;38261;54.090;13.382;2023-06-10T00:39:56;14.70;99.90
52321;DHT22;38261;54.090;13.382;2023-06-10T00:41:18;14.70;99.90
52321;DHT22;38261;54.090;13.382;2023-06-10T00:42:40;14.70;99.90
52321;DHT22;38261;54.090;13.382;2023-06-10T00:44:03;14.70;99.90
52321;DHT22;38261;54.090;13.382;2023-06-10T00:45:25;14.70;99.90
52321;DHT22;38261;54.090;13.382;2023-06-10T00:46:47;14.70;99.90
52321;DHT22;38261;54.090;13.382;2023-06-10T00:48:11;14.70;99.90
52321;DHT22;38261;54.090;13.382;2023-06-10T00:49:33;14.70;99.90
52321;DHT22;38261;54.090;13.382;2023-06-10T00:50:56;14.70;99.90
52321;DHT22;38261;54.090;13.382;2023-06-10T00:52:22;14.70;99.90
52321;DHT22;38261;54.090;13.382;2023-06-10T00:53:47;14.70;99.90
52321;DHT22;38261;54.090;13.382;2023-06-10T00:55:10;14.70;99.90
52321;DHT22;38261;54.090;13.382;2023-06-10T00:56:33;14.70;99.90
52321;DHT22;38261;54.090;13.382;2023-06-10T00:57:56;14.70;99.90
52321;DHT22;38261;54.090;13.382;2023-06-10T00:59:19;14.70;99.90
52321;DHT22;38261;54.090;13.382;2023-06-10T01:00:41;14.70;99.90
52321;DHT22;38261;54.090;13.382;2023-06-10T01:02:04;14.70;99.90
52321;DHT22;38261;54.090;13.382;2023-06-10T01:03:26;14.70;99.90
52321;DHT22;38261;54.090;13.382;2023-06-10T01:04:49;14.70;99.90
52321;DHT22;38261;54.090;13.382;2023-06-10T01:06:52;14.70;99.90
52321;DHT22;38261;54.090;13.382;2023-06-10T01:11:25;14.80;99.90
52321;DHT22;38261;54.090;13.382;2023-06-10T01:12:58;14.70;99.90
52321;DHT22;38261;54.090;13.382;2023-06-10T01:14:21;14.70;99.90
52321;DHT22;38261;54.090;13.382;2023-06-10T01:15:45;14.70;99.90
52321;DHT22;38261;54.090;13.382;2023-06-10T01:17:07;14.70;99.90
52321;DHT22;38261;54.090;13.382;2023-06-10T01:18:31;14.70;99.90
52321;DHT22;38261;54.090;13.382;2023-06-10T01:19:55;14.70;99.90
52321;DHT22;38261;54.090;13.382;2023-06-10T01:21:21;14.70;99.90
52321;DHT22;38261;54.090;13.382;2023-06-10T01:22:46;14.70;99.90
52321;DHT22;38261;54.090;13.382;2023-06-10T01:24:09;14.70;99.90
52321;DHT22;38261;54.090;13.382;2023-06-10T01:25:33;14.70;99.90
52321;DHT22;38261;54.090;13.382;2023-06-10T01:27:00;14.70;99.90
52321;DHT22;38261;54.090;13.382;2023-06-10T01:28:31;14.70;99.90
52321;DHT22;38261;54.090;13.382;2023-06-10T01:30:14;14.70;99.90
52321;DHT22;38261;54.090;13.382;2023-06-10T01:32:59;14.80;99.90
52321;DHT22;38261;54.090;13.382;2023-06-10T01:34:23;14.70;99.90
52321;DHT22;38261;54.090;13.382;2023-06-10T01:35:47;14.70;99.90
52321;DHT22;38261;54.090;13.382;2023-06-10T01:37:13;14.80;99.90
52321;DHT22;38261;54.090;13.382;2023-06-10T01:38:44;14.80;99.90
52321;DHT22;38261;54.090;13.382;2023-06-10T01:40:07;14.80;99.90
52321;DHT22;38261;54.090;13.382;2023-06-10T01:41:31;14.80;99.90
52321;DHT22;38261;54.090;13.382;2023-06-10T01:42:53;14.80;99.90
52321;DHT22;38261;54.090;13.382;2023-06-10T01:44:23;14.80;99.90
52321;DHT22;38261;54.090;13.382;2023-06-10T01:45:45;14.80;99.90
52321;DHT22;38261;54.090;13.382;2023-06-10T01:47:08;14.80;99.90
52321;DHT22;38261;54.090;13.382;2023-06-10T01:48:31;14.80;99.90
52321;DHT22;38261;54.090;13.382;2023-06-10T01:49:53;14.80;99.90
52321;DHT22;38261;54.090;13.382;2023-06-10T01:51:15;14.80;99.90
52321;DHT22;38261;54.090;13.382;2023-06-10T01:52:38;14.80;99.90
52321;DHT22;38261;54.090;13.382;2023-06-10T01:54:00;14.80;99.90
52321;DHT22;38261;54.090;13.382;2023-06-10T01:55:22;14.80;99.90
52321;DHT22;38261;54.090;13.382;2023-06-10T01:56:44;14.80;99.90
52321;DHT22;38261;54.090;13.382;2023-06-10T01:58:06;14.80;99.90
52321;DHT22;38261;54.090;13.382;2023-06-10T01:59:28;14.80;99.90
52321;DHT22;38261;54.090;13.382;2023-06-10T02:00:51;14.80;99.90
52321;DHT22;38261;54.090;13.382;2023-06-10T02:02:13;14.80;99.90
52321;DHT22;38261;54.090;13.382;2023-06-10T02:03:35;14.80;99.90
52321;DHT22;38261;54.090;13.382;2023-06-10T02:04:57;14.80;99.90
52321;DHT22;38261;54.090;13.382;2023-06-10T02:06:19;14.80;99.90
52321;DHT22;38261;54.090;13.382;2023-06-10T02:07:42;14.80;99.90
52321;DHT22;38261;54.090;13.382;2023-06-10T02:10:33;14.80;99.90
52321;DHT22;38261;54.090;13.382;2023-06-10T02:11:55;14.80;99.90
52321;DHT22;38261;54.090;13.382;2023-06-10T02:13:17;14.80;99.90
52321;DHT22;38261;54.090;13.382;2023-06-10T02:14:39;14.80;99.90
52321;DHT22;38261;54.090;13.382;2023-06-10T02:16:01;14.80;99.90
52321;DHT22;38261;54.090;13.382;2023-06-10T02:17:23;14.80;99.90
52321;DHT22;38261;54.090;13.382;2023-06-10T02:18:46;14.80;99.90
52321;DHT22;38261;54.090;13.382;2023-06-10T02:20:08;14.80;99.90
52321;DHT22;38261;54.090;13.382;2023-06-10T02:21:33;14.80;99.90
52321;DHT22;38261;54.090;13.382;2023-06-10T02:22:56;14.80;99.90
52321;DHT22;38261;54.090;13.382;2023-06-10T02:24:18;14.80;99.90
52321;DHT22;38261;54.090;13.382;2023-06-10T02:25:41;14.80;99.90
52321;DHT22;38261;54.090;13.382;2023-06-10T02:27:05;14.80;99.90
52321;DHT22;38261;54.090;13.382;2023-06-10T02:28:30;14.80;99.90
52321;DHT22;38261;54.090;13.382;2023-06-10T02:29:53;14.80;99.90
52321;DHT22;38261;54.090;13.382;2023-06-10T02:31:15;14.80;99.90
52321;DHT22;38261;54.090;13.382;2023-06-10T02:32:40;14.80;99.90
52321;DHT22;38261;54.090;13.382;2023-06-10T02:34:03;14.80;99.90
52321;DHT22;38261;54.090;13.382;2023-06-10T02:35:25;14.80;99.90
52321;DHT22;38261;54.090;13.382;2023-06-10T02:36:48;14.90;99.90
52321;DHT22;38261;54.090;13.382;2023-06-10T02:38:13;14.90;99.90
52321;DHT22;38261;54.090;13.382;2023-06-10T02:39:35;14.90;99.90
52321;DHT22;38261;54.090;13.382;2023-06-10T02:40:57;14.90;99.90
52321;DHT22;38261;54.090;13.382;2023-06-10T02:42:19;14.90;99.90
52321;DHT22;38261;54.090;13.382;2023-06-10T02:43:41;14.90;99.90
52321;DHT22;38261;54.090;13.382;2023-06-10T02:45:04;14.90;99.90
52321;DHT22;38261;54.090;13.382;2023-06-10T02:46:26;14.90;99.90
52321;DHT22;38261;54.090;13.382;2023-06-10T02:47:50;15.00;99.90
52321;DHT22;38261;54.090;13.382;2023-06-10T02:49:12;14.90;99.90
52321;DHT22;38261;54.090;13.382;2023-06-10T02:50:35;14.90;99.90
52321;DHT22;38261;54.090;13.382;2023-06-10T02:51:57;15.00;99.90
52321;DHT22;38261;54.090;13.382;2023-06-10T02:53:19;15.00;99.90
52321;DHT22;38261;54.090;13.382;2023-06-10T02:54:41;15.00;99.90
52321;DHT22;38261;54.090;13.382;2023-06-10T02:56:04;15.00;99.90
52321;DHT22;38261;54.090;13.382;2023-06-10T02:57:26;15.00;99.90
52321;DHT22;38261;54.090;13.382;2023-06-10T02:58:48;15.00;99.90
52321;DHT22;38261;54.090;13.382;2023-06-10T03:00:11;15.00;99.90
52321;DHT22;38261;54.090;13.382;2023-06-10T03:01:36;15.00;99.90
52321;DHT22;38261;54.090;13.382;2023-06-10T03:02:59;15.00;99.90
52321;DHT22;38261;54.090;13.382;2023-06-10T03:04:24;15.10;99.90
52321;DHT22;38261;54.090;13.382;2023-06-10T03:05:47;15.10;99.90
52321;DHT22;38261;54.090;13.382;2023-06-10T03:07:10;15.10;99.90
52321;DHT22;38261;54.090;13.382;2023-06-10T03:08:32;15.10;99.90
52321;DHT22;38261;54.090;13.382;2023-06-10T03:09:55;15.10;99.90
52321;DHT22;38261;54.090;13.382;2023-06-10T03:11:17;15.10;99.90
52321;DHT22;38261;54.090;13.382;2023-06-10T03:12:41;15.10;99.90
52321;DHT22;38261;54.090;13.382;2023-06-10T03:14:03;15.10;99.90
52321;DHT22;38261;54.090;13.382;2023-06-10T03:15:25;15.20;99.90
52321;DHT22;38261;54.090;13.382;2023-06-10T03:16:48;15.20;99.90
52321;DHT22;38261;54.090;13.382;2023-06-10T03:18:10;15.20;99.90
52321;DHT22;38261;54.090;13.382;2023-06-10T03:19:32;15.20;99.90
52321;DHT22;38261;54.090;13.382;2023-06-10T03:20:55;15.30;99.90
52321;DHT22;38261;54.090;13.382;2023-06-10T03:22:18;15.30;99.90
52321;DHT22;38261;54.090;13.382;2023-06-10T03:23:40;15.30;99.90
52321;DHT22;38261;54.090;13.382;2023-06-10T03:25:04;15.50;99.90
52321;DHT22;38261;54.090;13.382;2023-06-10T03:26:27;15.80;99.90
52321;DHT22;38261;54.090;13.382;2023-06-10T03:27:49;16.10;99.90
52321;DHT22;38261;54.090;13.382;2023-06-10T03:29:12;16.30;99.90
52321;DHT22;38261;54.090;13.382;2023-06-10T03:30:35;16.50;99.90
52321;DHT22;38261;54.090;13.382;2023-06-10T03:31:57;16.80;99.90
52321;DHT22;38261;54.090;13.382;2023-06-10T03:33:19;17.00;99.90
52321;DHT22;38261;54.090;13.382;2023-06-10T03:34:41;17.10;99.90
52321;DHT22;38261;54.090;13.382;2023-06-10T03:36:04;17.10;99.90
52321;DHT22;38261;54.090;13.382;2023-06-10T03:37:26;17.30;99.90
52321;DHT22;38261;54.090;13.382;2023-06-10T03:38:48;17.40;99.90
52321;DHT22;38261;54.090;13.382;2023-06-10T03:40:13;17.40;99.90
52321;DHT22;38261;54.090;13.382;2023-06-10T03:41:35;17.40;99.90
52321;DHT22;38261;54.090;13.382;2023-06-10T03:42:58;17.30;99.90
52321;DHT22;38261;54.090;13.382;2023-06-10T03:44:20;17.20;99.90
52321;DHT22;38261;54.090;13.382;2023-06-10T03:45:42;17.30;99.90
52321;DHT22;38261;54.090;13.382;2023-06-10T03:47:05;17.50;99.90
52321;DHT22;38261;54.090;13.382;2023-06-10T03:48:27;17.80;99.90
52321;DHT22;38261;54.090;13.382;2023-06-10T03:49:49;18.00;99.90
52321;DHT22;38261;54.090;13.382;2023-06-10T03:51:11;18.00;99.90
52321;DHT22;38261;54.090;13.382;2023-06-10T03:52:34;18.00;99.90
52321;DHT22;38261;54.090;13.382;2023-06-10T03:53:57;17.80;99.90
52321;DHT22;38261;54.090;13.382;2023-06-10T03:55:19;17.50;99.90
52321;DHT22;38261;54.090;13.382;2023-06-10T03:56:43;17.30;99.90
52321;DHT22;38261;54.090;13.382;2023-06-10T03:58:05;17.10;99.90
52321;DHT22;38261;54.090;13.382;2023-06-10T03:59:28;17.10;99.90
52321;DHT22;38261;54.090;13.382;2023-06-10T04:00:50;17.10;99.90
52321;DHT22;38261;54.090;13.382;2023-06-10T04:02:13;17.00;99.90
52321;DHT22;38261;54.090;13.382;2023-06-10T04:03:35;17.00;99.90
52321;DHT22;38261;54.090;13.382;2023-06-10T04:04:58;16.90;99.90
52321;DHT22;38261;54.090;13.382;2023-06-10T04:06:20;17.00;99.90
52321;DHT22;38261;54.090;13.382;2023-06-10T04:07:44;17.10;99.90
52321;DHT22;38261;54.090;13.382;2023-06-10T04:09:06;17.40;99.90
52321;DHT22;38261;54.090;13.382;2023-06-10T04:10:29;17.60;99.90
52321;DHT22;38261;54.090;13.382;2023-06-10T04:11:51;17.60;99.90
52321;DHT22;38261;54.090;13.382;2023-06-10T04:13:14;17.60;99.90
52321;DHT22;38261;54.090;13.382;2023-06-10T04:14:36;17.50;99.90
52321;DHT22;38261;54.090;13.382;2023-06-10T04:15:59;17.60;99.90
52321;DHT22;38261;54.090;13.382;2023-06-10T04:17:22;17.80;99.90
52321;DHT22;38261;54.090;13.382;2023-06-10T04:18:44;18.10;99.90
52321;DHT22;38261;54.090;13.382;2023-06-10T04:20:07;18.40;99.90
52321;DHT22;38261;54.090;13.382;2023-06-10T04:21:30;18.60;99.90
52321;DHT22;38261;54.090;13.382;2023-06-10T04:22:52;18.70;99.90
52321;DHT22;38261;54.090;13.382;2023-06-10T04:24:14;18.80;99.90
52321;DHT22;38261;54.090;13.382;2023-06-10T04:25:37;18.90;99.90
52321;DHT22;38261;54.090;13.382;2023-06-10T04:26:59;18.90;99.90
52321;DHT22;38261;54.090;13.382;2023-06-10T04:28:22;18.80;99.90
52321;DHT22;38261;54.090;13.382;2023-06-10T04:29:44;18.70;99.90
52321;DHT22;38261;54.090;13.382;2023-06-10T04:31:06;18.50;99.90
52321;DHT22;38261;54.090;13.382;2023-06-10T04:32:28;18.40;99.90
52321;DHT22;38261;54.090;13.382;2023-06-10T04:33:51;18.50;99.90
52321;DHT22;38261;54.090;13.382;2023-06-10T04:35:14;18.90;99.90
52321;DHT22;38261;54.090;13.382;2023-06-10T04:36:36;19.40;99.90
52321;DHT22;38261;54.090;13.382;2023-06-10T04:37:59;20.00;99.90
52321;DHT22;38261;54.090;13.382;2023-06-10T04:39:22;20.50;99.90
52321;DHT22;38261;54.090;13.382;2023-06-10T04:40:44;20.70;99.90
52321;DHT22;38261;54.090;13.382;2023-06-10T04:42:07;20.60;99.90
52321;DHT22;38261;54.090;13.382;2023-06-10T04:43:29;20.20;99.90
52321;DHT22;38261;54.090;13.382;2023-06-10T04:44:52;19.80;99.90
52321;DHT22;38261;54.090;13.382;2023-06-10T04:46:14;19.40;99.90
52321;DHT22;38261;54.090;13.382;2023-06-10T04:47:36;19.00;99.90
52321;DHT22;38261;54.090;13.382;2023-06-10T04:48:58;18.80;99.90
52321;DHT22;38261;54.090;13.382;2023-06-10T04:50:21;18.60;99.90
52321;DHT22;38261;54.090;13.382;2023-06-10T04:51:43;18.50;99.90
52321;DHT22;38261;54.090;13.382;2023-06-10T04:53:05;18.50;99.90
52321;DHT22;38261;54.090;13.382;2023-06-10T04:54:28;18.50;99.90
52321;DHT22;38261;54.090;13.382;2023-06-10T04:55:50;18.50;99.90
52321;DHT22;38261;54.090;13.382;2023-06-10T04:57:12;18.60;99.90
52321;DHT22;38261;54.090;13.382;2023-06-10T04:58:34;18.70;99.90
52321;DHT22;38261;54.090;13.382;2023-06-10T04:59:56;18.90;99.90
52321;DHT22;38261;54.090;13.382;2023-06-10T05:01:18;19.30;99.90
52321;DHT22;38261;54.090;13.382;2023-06-10T05:02:40;19.90;99.90
52321;DHT22;38261;54.090;13.382;2023-06-10T05:04:03;20.20;99.90
52321;DHT22;38261;54.090;13.382;2023-06-10T05:05:26;20.40;99.90
52321;DHT22;38261;54.090;13.382;2023-06-10T05:06:48;20.30;99.90
52321;DHT22;38261;54.090;13.382;2023-06-10T05:08:10;20.10;99.90
52321;DHT22;38261;54.090;13.382;2023-06-10T05:09:32;19.80;99.90
52321;DHT22;38261;54.090;13.382;2023-06-10T05:10:55;19.50;99.90
52321;DHT22;38261;54.090;13.382;2023-06-10T05:12:17;19.40;99.90
52321;DHT22;38261;54.090;13.382;2023-06-10T05:13:41;19.20;99.90
52321;DHT22;38261;54.090;13.382;2023-06-10T05:15:03;19.10;99.90
52321;DHT22;38261;54.090;13.382;2023-06-10T05:16:25;19.10;99.90
52321;DHT22;38261;54.090;13.382;2023-06-10T05:17:47;19.30;99.90
52321;DHT22;38261;54.090;13.382;2023-06-10T05:19:11;19.80;99.90
52321;DHT22;38261;54.090;13.382;2023-06-10T05:20:33;20.20;99.90
52321;DHT22;38261;54.090;13.382;2023-06-10T05:21:55;20.90;99.90
52321;DHT22;38261;54.090;13.382;2023-06-10T05:23:17;21.50;99.90
52321;DHT22;38261;54.090;13.382;2023-06-10T05:24:39;21.90;99.90
52321;DHT22;38261;54.090;13.382;2023-06-10T05:26:02;22.50;99.90
52321;DHT22;38261;54.090;13.382;2023-06-10T05:27:24;22.80;99.90
52321;DHT22;38261;54.090;13.382;2023-06-10T05:28:47;23.00;99.90
52321;DHT22;38261;54.090;13.382;2023-06-10T05:30:10;23.20;99.90
52321;DHT22;38261;54.090;13.382;2023-06-10T05:31:33;23.30;99.90
52321;DHT22;38261;54.090;13.382;2023-06-10T05:32:55;23.50;99.90
52321;DHT22;38261;54.090;13.382;2023-06-10T05:34:18;23.60;99.90
52321;DHT22;38261;54.090;13.382;2023-06-10T05:35:40;23.70;99.90
52321;DHT22;38261;54.090;13.382;2023-06-10T05:37:03;23.80;99.90
52321;DHT22;38261;54.090;13.382;2023-06-10T05:38:25;24.00;99.90
52321;DHT22;38261;54.090;13.382;2023-06-10T05:39:47;24.10;99.90
52321;DHT22;38261;54.090;13.382;2023-06-10T05:41:09;24.30;99.90
52321;DHT22;38261;54.090;13.382;2023-06-10T05:42:31;24.50;99.90
52321;DHT22;38261;54.090;13.382;2023-06-10T05:43:53;24.80;99.90
52321;DHT22;38261;54.090;13.382;2023-06-10T05:45:16;25.00;99.90
52321;DHT22;38261;54.090;13.382;2023-06-10T05:46:38;25.20;99.90
52321;DHT22;38261;54.090;13.382;2023-06-10T05:48:00;25.00;99.90
52321;DHT22;38261;54.090;13.382;2023-06-10T05:49:22;25.00;99.90
52321;DHT22;38261;54.090;13.382;2023-06-10T05:50:44;24.90;99.90
52321;DHT22;38261;54.090;13.382;2023-06-10T05:52:10;24.90;99.90
52321;DHT22;38261;54.090;13.382;2023-06-10T05:53:32;24.90;99.90
52321;DHT22;38261;54.090;13.382;2023-06-10T05:54:54;25.10;99.90
52321;DHT22;38261;54.090;13.382;2023-06-10T05:56:16;25.30;99.90
52321;DHT22;38261;54.090;13.382;2023-06-10T05:57:41;25.40;99.90
52321;DHT22;38261;54.090;13.382;2023-06-10T05:59:03;25.50;99.90
52321;DHT22;38261;54.090;13.382;2023-06-10T06:00:25;25.60;99.90
52321;DHT22;38261;54.090;13.382;2023-06-10T06:01:49;25.50;99.90
52321;DHT22;38261;54.090;13.382;2023-06-10T06:03:12;25.20;99.90
52321;DHT22;38261;54.090;13.382;2023-06-10T06:04:34;25.20;99.90
52321;DHT22;38261;54.090;13.382;2023-06-10T06:05:56;25.00;99.90
52321;DHT22;38261;54.090;13.382;2023-06-10T06:07:19;24.70;99.90
52321;DHT22;38261;54.090;13.382;2023-06-10T06:08:42;24.20;99.90
52321;DHT22;38261;54.090;13.382;2023-06-10T06:10:05;23.70;99.90
52321;DHT22;38261;54.090;13.382;2023-06-10T06:11:27;23.00;99.90
52321;DHT22;38261;54.090;13.382;2023-06-10T06:12:49;22.40;99.90
52321;DHT22;38261;54.090;13.382;2023-06-10T06:14:11;22.00;99.90
52321;DHT22;38261;54.090;13.382;2023-06-10T06:15:33;22.00;99.90
52321;DHT22;38261;54.090;13.382;2023-06-10T06:16:56;21.90;99.90
52321;DHT22;38261;54.090;13.382;2023-06-10T06:18:18;22.10;99.90
52321;DHT22;38261;54.090;13.382;2023-06-10T06:19:40;22.50;99.90
52321;DHT22;38261;54.090;13.382;2023-06-10T06:21:02;23.00;99.90
52321;DHT22;38261;54.090;13.382;2023-06-10T06:22:24;23.20;99.90
52321;DHT22;38261;54.090;13.382;2023-06-10T06:23:47;23.40;99.90
52321;DHT22;38261;54.090;13.382;2023-06-10T06:25:09;23.50;99.90
52321;DHT22;38261;54.090;13.382;2023-06-10T06:26:32;23.70;99.90
52321;DHT22;38261;54.090;13.382;2023-06-10T06:27:54;23.70;99.90
52321;DHT22;38261;54.090;13.382;2023-06-10T06:29:16;23.60;99.90
52321;DHT22;38261;54.090;13.382;2023-06-10T06:30:38;23.10;99.90
52321;DHT22;38261;54.090;13.382;2023-06-10T06:32:00;22.60;99.90
52321;DHT22;38261;54.090;13.382;2023-06-10T06:33:22;22.20;99.90
52321;DHT22;38261;54.090;13.382;2023-06-10T06:34:45;21.80;99.90
52321;DHT22;38261;54.090;13.382;2023-06-10T06:36:07;21.50;99.90
52321;DHT22;38261;54.090;13.382;2023-06-10T06:37:29;21.20;99.90
52321;DHT22;38261;54.090;13.382;2023-06-10T06:38:51;21.00;99.90
52321;DHT22;38261;54.090;13.382;2023-06-10T06:40:13;20.80;99.90
52321;DHT22;38261;54.090;13.382;2023-06-10T06:41:36;20.60;99.90
52321;DHT22;38261;54.090;13.382;2023-06-10T06:42:58;20.50;99.90
52321;DHT22;38261;54.090;13.382;2023-06-10T06:44:20;20.50;99.90
52321;DHT22;38261;54.090;13.382;2023-06-10T06:45:42;20.40;99.90
52321;DHT22;38261;54.090;13.382;2023-06-10T06:47:04;20.40;99.90
52321;DHT22;38261;54.090;13.382;2023-06-10T06:48:26;20.30;99.90
52321;DHT22;38261;54.090;13.382;2023-06-10T06:49:49;20.10;99.90
52321;DHT22;38261;54.090;13.382;2023-06-10T06:51:11;20.00;99.90
52321;DHT22;38261;54.090;13.382;2023-06-10T06:52:33;19.80;99.90
52321;DHT22;38261;54.090;13.382;2023-06-10T06:53:55;19.60;99.90
52321;DHT22;38261;54.090;13.382;2023-06-10T06:55:21;19.50;99.90
52321;DHT22;38261;54.090;13.382;2023-06-10T06:56:43;19.30;99.90
52321;DHT22;38261;54.090;13.382;2023-06-10T06:58:05;19.20;99.90
52321;DHT22;38261;54.090;13.382;2023-06-10T06:59:28;19.10;99.90
52321;DHT22;38261;54.090;13.382;2023-06-10T07:00:50;19.10;99.90
52321;DHT22;38261;54.090;13.382;2023-06-10T07:02:12;19.00;99.90
52321;DHT22;38261;54.090;13.382;2023-06-10T07:03:35;19.10;99.90
52321;DHT22;38261;54.090;13.382;2023-06-10T07:04:57;19.20;99.90
52321;DHT22;38261;54.090;13.382;2023-06-10T07:06:20;19.30;99.90
52321;DHT22;38261;54.090;13.382;2023-06-10T07:07:43;19.20;99.90
52321;DHT22;38261;54.090;13.382;2023-06-10T07:09:06;19.20;99.90
52321;DHT22;38261;54.090;13.382;2023-06-10T07:10:29;19.20;99.90
52321;DHT22;38261;54.090;13.382;2023-06-10T07:11:51;19.20;99.90
52321;DHT22;38261;54.090;13.382;2023-06-10T07:13:13;19.10;99.90
52321;DHT22;38261;54.090;13.382;2023-06-10T07:14:36;19.00;99.90
52321;DHT22;38261;54.090;13.382;2023-06-10T07:15:58;19.00;99.90
52321;DHT22;38261;54.090;13.382;2023-06-10T07:17:21;19.00;99.90
52321;DHT22;38261;54.090;13.382;2023-06-10T07:18:43;19.00;99.90
52321;DHT22;38261;54.090;13.382;2023-06-10T07:20:05;19.00;99.90
52321;DHT22;38261;54.090;13.382;2023-06-10T07:21:29;19.00;99.90
52321;DHT22;38261;54.090;13.382;2023-06-10T07:22:51;19.00;99.90
52321;DHT22;38261;54.090;13.382;2023-06-10T07:24:13;19.00;99.90
52321;DHT22;38261;54.090;13.382;2023-06-10T07:25:36;19.00;99.90
52321;DHT22;38261;54.090;13.382;2023-06-10T07:26:58;19.00;99.90
52321;DHT22;38261;54.090;13.382;2023-06-10T07:28:21;19.00;99.90
52321;DHT22;38261;54.090;13.382;2023-06-10T07:29:43;19.10;99.90
52321;DHT22;38261;54.090;13.382;2023-06-10T07:31:05;19.10;99.90
52321;DHT22;38261;54.090;13.382;2023-06-10T07:32:27;19.10;99.90
52321;DHT22;38261;54.090;13.382;2023-06-10T07:33:50;19.00;99.90
52321;DHT22;38261;54.090;13.382;2023-06-10T07:35:12;19.10;99.90
52321;DHT22;38261;54.090;13.382;2023-06-10T07:36:34;19.10;99.90
52321;DHT22;38261;54.090;13.382;2023-06-10T07:37:56;19.10;99.90
52321;DHT22;38261;54.090;13.382;2023-06-10T07:39:18;19.10;99.90
52321;DHT22;38261;54.090;13.382;2023-06-10T07:40:40;19.10;99.90
52321;DHT22;38261;54.090;13.382;2023-06-10T07:42:03;19.10;99.90
52321;DHT22;38261;54.090;13.382;2023-06-10T07:43:25;19.00;99.90
52321;DHT22;38261;54.090;13.382;2023-06-10T07:44:47;18.90;99.90
52321;DHT22;38261;54.090;13.382;2023-06-10T07:46:10;18.90;99.90
52321;DHT22;38261;54.090;13.382;2023-06-10T07:47:33;18.90;99.90
52321;DHT22;38261;54.090;13.382;2023-06-10T07:48:56;19.00;99.90
52321;DHT22;38261;54.090;13.382;2023-06-10T07:50:18;19.00;99.90
52321;DHT22;38261;54.090;13.382;2023-06-10T07:51:40;19.10;99.90
52321;DHT22;38261;54.090;13.382;2023-06-10T07:53:03;19.20;99.90
52321;DHT22;38261;54.090;13.382;2023-06-10T07:54:25;19.20;99.90
52321;DHT22;38261;54.090;13.382;2023-06-10T07:55:51;19.30;99.90
52321;DHT22;38261;54.090;13.382;2023-06-10T07:57:13;19.30;99.90
52321;DHT22;38261;54.090;13.382;2023-06-10T07:58:35;19.30;99.90
52321;DHT22;38261;54.090;13.382;2023-06-10T07:59:57;19.30;99.90
52321;DHT22;38261;54.090;13.382;2023-06-10T08:01:23;19.30;99.90
52321;DHT22;38261;54.090;13.382;2023-06-10T08:02:45;19.30;99.90
52321;DHT22;38261;54.090;13.382;2023-06-10T08:04:07;19.20;99.90
52321;DHT22;38261;54.090;13.382;2023-06-10T08:05:30;19.10;99.90
52321;DHT22;38261;54.090;13.382;2023-06-10T08:06:52;19.10;99.90
52321;DHT22;38261;54.090;13.382;2023-06-10T08:08:14;19.20;99.90
52321;DHT22;38261;54.090;13.382;2023-06-10T08:10:46;19.30;99.90
52321;DHT22;38261;54.090;13.382;2023-06-10T08:12:08;19.20;99.90
52321;DHT22;38261;54.090;13.382;2023-06-10T08:13:31;19.20;99.90
52321;DHT22;38261;54.090;13.382;2023-06-10T08:14:53;19.20;99.90
52321;DHT22;38261;54.090;13.382;2023-06-10T08:16:16;19.30;99.90
52321;DHT22;38261;54.090;13.382;2023-06-10T08:17:39;19.30;99.90
52321;DHT22;38261;54.090;13.382;2023-06-10T08:19:01;19.40;99.90
52321;DHT22;38261;54.090;13.382;2023-06-10T08:20:23;19.40;99.90
52321;DHT22;38261;54.090;13.382;2023-06-10T08:21:46;19.30;99.90
52321;DHT22;38261;54.090;13.382;2023-06-10T08:23:08;19.20;99.90
52321;DHT22;38261;54.090;13.382;2023-06-10T08:24:30;19.10;99.90
52321;DHT22;38261;54.090;13.382;2023-06-10T08:25:52;19.10;99.90
52321;DHT22;38261;54.090;13.382;2023-06-10T08:27:15;19.10;99.90
52321;DHT22;38261;54.090;13.382;2023-06-10T08:28:37;19.10;99.90
52321;DHT22;38261;54.090;13.382;2023-06-10T08:29:59;19.20;99.90
52321;DHT22;38261;54.090;13.382;2023-06-10T08:31:22;19.20;99.90
52321;DHT22;38261;54.090;13.382;2023-06-10T08:32:45;19.30;99.90
52321;DHT22;38261;54.090;13.382;2023-06-10T08:34:07;19.20;99.90
52321;DHT22;38261;54.090;13.382;2023-06-10T08:35:29;19.20;99.90
52321;DHT22;38261;54.090;13.382;2023-06-10T08:36:51;19.30;99.90
52321;DHT22;38261;54.090;13.382;2023-06-10T08:38:15;19.40;99.90
52321;DHT22;38261;54.090;13.382;2023-06-10T08:39:38;19.30;99.90
52321;DHT22;38261;54.090;13.382;2023-06-10T08:41:00;19.30;99.90
52321;DHT22;38261;54.090;13.382;2023-06-10T08:42:33;19.30;99.90